sensor_id;sensor_type;location;lat;lon;timestamp;pressure;altitude;pressure_sealevel;temperature;humidity
76660;BME280;65579;45.534;6.212;2023-04-06T00:00:09;98513.42;;;5.40;41.95
76660;BME280;65579;45.534;6.212;2023-04-06T00:02:33;98513.31;;;5.65;41.49
76660;BME280;65579;45.534;6.212;2023-04-06T00:04:58;98515.35;;;5.36;40.96
76660;BME280;65579;45.534;6.212;2023-04-06T00:07:24;98513.50;;;5.67;40.82
76660;BME280;65579;45.534;6.212;2023-04-06T00:09:50;98514.09;;;5.06;42.56
76660;BME280;65579;45.534;6.212;2023-04-06T00:12:15;98511.34;;;5.47;41.20
76660;BME280;65579;45.534;6.212;2023-04-06T00:14:40;98514.29;;;5.06;42.04
76660;BME280;65579;45.534;6.212;2023-04-06T00:17:06;98514.82;;;4.76;42.76
76660;BME280;65579;45.534;6.212;2023-04-06T00:19:31;98515.27;;;5.15;41.62
76660;BME280;65579;45.534;6.212;2023-04-06T00:21:57;98516.93;;;4.77;41.91
76660;BME280;65579;45.534;6.212;2023-04-06T00:24:22;98522.38;;;3.89;43.72
76660;BME280;65579;45.534;6.212;2023-04-06T00:26:48;98524.12;;;3.99;44.14
76660;BME280;65579;45.534;6.212;2023-04-06T00:29:13;98518.59;;;3.43;44.57
76660;BME280;65579;45.534;6.212;2023-04-06T00:31:39;98517.49;;;4.30;43.72
76660;BME280;65579;45.534;6.212;2023-04-06T00:34:05;98515.09;;;4.01;44.39
76660;BME280;65579;45.534;6.212;2023-04-06T00:36:30;98511.58;;;4.22;42.75
76660;BME280;65579;45.534;6.212;2023-04-06T00:38:56;98507.15;;;4.71;43.11
76660;BME280;65579;45.534;6.212;2023-04-06T00:41:21;98507.08;;;3.64;43.50
76660;BME280;65579;45.534;6.212;2023-04-06T00:43:47;98506.76;;;3.90;44.23
76660;BME280;65579;45.534;6.212;2023-04-06T00:46:12;98506.58;;;3.93;44.70
76660;BME280;65579;45.534;6.212;2023-04-06T00:48:37;98508.58;;;3.82;44.66
76660;BME280;65579;45.534;6.212;2023-04-06T00:51:03;98507.12;;;3.82;44.72
76660;BME280;65579;45.534;6.212;2023-04-06T00:53:29;98508.95;;;3.76;43.27
76660;BME280;65579;45.534;6.212;2023-04-06T00:55:54;98508.33;;;4.23;44.72
76660;BME280;65579;45.534;6.212;2023-04-06T00:58:20;98507.58;;;4.57;42.67
76660;BME280;65579;45.534;6.212;2023-04-06T01:00:45;98503.43;;;4.03;42.67
76660;BME280;65579;45.534;6.212;2023-04-06T01:03:11;98499.27;;;4.30;44.08
76660;BME280;65579;45.534;6.212;2023-04-06T01:05:36;98492.33;;;4.77;43.40
76660;BME280;65579;45.534;6.212;2023-04-06T01:08:01;98493.36;;;4.07;43.89
76660;BME280;65579;45.534;6.212;2023-04-06T01:10:28;98492.26;;;4.14;43.05
76660;BME280;65579;45.534;6.212;2023-04-06T01:12:51;98490.07;;;4.02;44.49
76660;BME280;65579;45.534;6.212;2023-04-06T01:15:17;98484.96;;;3.76;46.09
76660;BME280;65579;45.534;6.212;2023-04-06T01:17:42;98482.14;;;3.25;46.36
76660;BME280;65579;45.534;6.212;2023-04-06T01:20:08;98477.76;;;4.22;44.37
76660;BME280;65579;45.534;6.212;2023-04-06T01:22:33;98476.30;;;4.14;43.79
76660;BME280;65579;45.534;6.212;2023-04-06T01:24:58;98476.52;;;3.30;44.89
76660;BME280;65579;45.534;6.212;2023-04-06T01:27:24;98475.08;;;3.62;45.64
76660;BME280;65579;45.534;6.212;2023-04-06T01:29:49;98475.67;;;2.95;46.55
76660;BME280;65579;45.534;6.212;2023-04-06T01:32:14;98476.27;;;3.92;44.32
76660;BME280;65579;45.534;6.212;2023-04-06T01:34:39;98477.91;;;3.20;44.26
76660;BME280;65579;45.534;6.212;2023-04-06T01:37:05;98476.01;;;3.66;43.94
76660;BME280;65579;45.534;6.212;2023-04-06T01:39:30;98472.49;;;4.16;43.37
76660;BME280;65579;45.534;6.212;2023-04-06T01:41:56;98470.97;;;3.79;45.61
76660;BME280;65579;45.534;6.212;2023-04-06T01:44:21;98470.52;;;4.06;45.11
76660;BME280;65579;45.534;6.212;2023-04-06T01:46:47;98471.21;;;3.41;46.11
76660;BME280;65579;45.534;6.212;2023-04-06T01:49:12;98468.43;;;3.74;44.58
76660;BME280;65579;45.534;6.212;2023-04-06T01:51:38;98465.77;;;3.85;44.01
76660;BME280;65579;45.534;6.212;2023-04-06T01:54:03;98464.05;;;3.12;46.21
76660;BME280;65579;45.534;6.212;2023-04-06T01:56:29;98459.12;;;3.30;45.55
76660;BME280;65579;45.534;6.212;2023-04-06T01:58:54;98457.76;;;3.58;44.09
76660;BME280;65579;45.534;6.212;2023-04-06T02:01:19;98454.48;;;3.19;45.84
76660;BME280;65579;45.534;6.212;2023-04-06T02:03:45;98458.70;;;2.97;46.24
76660;BME280;65579;45.534;6.212;2023-04-06T02:06:10;98464.53;;;2.83;46.92
76660;BME280;65579;45.534;6.212;2023-04-06T02:08:36;98465.30;;;2.85;47.55
76660;BME280;65579;45.534;6.212;2023-04-06T02:11:01;98470.60;;;2.09;48.37
76660;BME280;65579;45.534;6.212;2023-04-06T02:13:26;98464.44;;;3.17;46.75
76660;BME280;65579;45.534;6.212;2023-04-06T02:15:52;98469.76;;;1.92;48.70
76660;BME280;65579;45.534;6.212;2023-04-06T02:18:18;98461.62;;;3.03;48.10
76660;BME280;65579;45.534;6.212;2023-04-06T02:20:42;98460.66;;;2.92;46.80
76660;BME280;65579;45.534;6.212;2023-04-06T02:23:08;98466.56;;;2.89;46.12
76660;BME280;65579;45.534;6.212;2023-04-06T02:25:33;98466.58;;;3.42;47.07
76660;BME280;65579;45.534;6.212;2023-04-06T02:27:59;98473.64;;;2.68;47.03
76660;BME280;65579;45.534;6.212;2023-04-06T02:30:25;98476.94;;;2.48;47.29
76660;BME280;65579;45.534;6.212;2023-04-06T02:32:51;98474.49;;;2.36;48.74
76660;BME280;65579;45.534;6.212;2023-04-06T02:35:16;98471.23;;;2.65;48.70
76660;BME280;65579;45.534;6.212;2023-04-06T02:37:41;98464.32;;;2.83;46.97
76660;BME280;65579;45.534;6.212;2023-04-06T02:40:08;98465.61;;;2.83;46.41
76660;BME280;65579;45.534;6.212;2023-04-06T02:42:32;98468.44;;;2.52;47.23
76660;BME280;65579;45.534;6.212;2023-04-06T02:44:57;98466.64;;;2.30;48.86
76660;BME280;65579;45.534;6.212;2023-04-06T02:47:22;98462.89;;;2.65;48.57
76660;BME280;65579;45.534;6.212;2023-04-06T02:49:48;98459.20;;;2.57;46.24
76660;BME280;65579;45.534;6.212;2023-04-06T02:52:14;98456.27;;;2.34;47.70
76660;BME280;65579;45.534;6.212;2023-04-06T02:54:39;98450.32;;;2.62;46.37
76660;BME280;65579;45.534;6.212;2023-04-06T02:57:04;98450.97;;;2.95;46.53
76660;BME280;65579;45.534;6.212;2023-04-06T02:59:30;98451.57;;;2.51;46.42
76660;BME280;65579;45.534;6.212;2023-04-06T03:01:55;98447.02;;;2.57;48.38
76660;BME280;65579;45.534;6.212;2023-04-06T03:04:21;98443.96;;;2.66;46.82
76660;BME280;65579;45.534;6.212;2023-04-06T03:06:46;98447.98;;;2.53;46.84
76660;BME280;65579;45.534;6.212;2023-04-06T03:09:12;98448.26;;;2.97;45.98
76660;BME280;65579;45.534;6.212;2023-04-06T03:11:37;98454.01;;;2.44;48.75
76660;BME280;65579;45.534;6.212;2023-04-06T03:14:02;98457.47;;;1.94;47.72
76660;BME280;65579;45.534;6.212;2023-04-06T03:16:27;98459.62;;;2.45;46.65
76660;BME280;65579;45.534;6.212;2023-04-06T03:18:52;98455.15;;;2.54;46.64
76660;BME280;65579;45.534;6.212;2023-04-06T03:21:18;98448.80;;;2.83;45.85
76660;BME280;65579;45.534;6.212;2023-04-06T03:23:44;98444.91;;;3.09;45.77
76660;BME280;65579;45.534;6.212;2023-04-06T03:26:08;98446.13;;;2.72;46.35
76660;BME280;65579;45.534;6.212;2023-04-06T03:28:34;98451.38;;;2.50;47.95
76660;BME280;65579;45.534;6.212;2023-04-06T03:31:00;98452.95;;;2.19;48.49
76660;BME280;65579;45.534;6.212;2023-04-06T03:33:25;98451.13;;;2.23;48.04
76660;BME280;65579;45.534;6.212;2023-04-06T03:35:51;98448.71;;;2.43;47.03
76660;BME280;65579;45.534;6.212;2023-04-06T03:38:15;98446.14;;;3.03;46.69
76660;BME280;65579;45.534;6.212;2023-04-06T03:40:41;98453.33;;;2.58;45.94
76660;BME280;65579;45.534;6.212;2023-04-06T03:43:06;98455.35;;;2.05;48.50
76660;BME280;65579;45.534;6.212;2023-04-06T03:45:31;98451.98;;;2.29;46.72
76660;BME280;65579;45.534;6.212;2023-04-06T03:47:57;98458.00;;;1.95;47.38
76660;BME280;65579;45.534;6.212;2023-04-06T03:50:22;98455.88;;;2.32;47.25
76660;BME280;65579;45.534;6.212;2023-04-06T03:52:47;98461.02;;;2.09;47.20
76660;BME280;65579;45.534;6.212;2023-04-06T03:55:13;98463.78;;;2.02;47.62
76660;BME280;65579;45.534;6.212;2023-04-06T03:57:38;98458.48;;;2.29;49.52
76660;BME280;65579;45.534;6.212;2023-04-06T04:00:04;98456.88;;;2.17;47.27
76660;BME280;65579;45.534;6.212;2023-04-06T04:02:29;98459.45;;;3.49;44.31
76660;BME280;65579;45.534;6.212;2023-04-06T04:04:55;98472.97;;;2.24;47.24
76660;BME280;65579;45.534;6.212;2023-04-06T04:07:20;98469.06;;;3.06;47.76
76660;BME280;65579;45.534;6.212;2023-04-06T04:09:46;98479.15;;;2.33;47.85
76660;BME280;65579;45.534;6.212;2023-04-06T04:12:11;98477.75;;;2.50;46.19
76660;BME280;65579;45.534;6.212;2023-04-06T04:14:36;98481.59;;;2.03;47.28
76660;BME280;65579;45.534;6.212;2023-04-06T04:17:02;98480.40;;;2.25;46.24
76660;BME280;65579;45.534;6.212;2023-04-06T04:19:27;98479.49;;;2.87;44.79
76660;BME280;65579;45.534;6.212;2023-04-06T04:21:53;98483.91;;;2.57;45.45
76660;BME280;65579;45.534;6.212;2023-04-06T04:24:18;98485.11;;;2.72;44.86
76660;BME280;65579;45.534;6.212;2023-04-06T04:26:43;98488.18;;;2.28;47.35
76660;BME280;65579;45.534;6.212;2023-04-06T04:29:09;98487.10;;;2.10;46.74
76660;BME280;65579;45.534;6.212;2023-04-06T04:31:34;98486.42;;;2.02;47.01
76660;BME280;65579;45.534;6.212;2023-04-06T04:34:00;98486.99;;;1.38;48.49
76660;BME280;65579;45.534;6.212;2023-04-06T04:36:24;98488.19;;;1.70;48.84
76660;BME280;65579;45.534;6.212;2023-04-06T04:38:50;98493.64;;;1.50;49.92
76660;BME280;65579;45.534;6.212;2023-04-06T04:41:15;98497.81;;;1.38;50.22
76660;BME280;65579;45.534;6.212;2023-04-06T04:43:41;98504.41;;;1.19;49.22
76660;BME280;65579;45.534;6.212;2023-04-06T04:46:06;98509.04;;;0.68;51.17
76660;BME280;65579;45.534;6.212;2023-04-06T04:48:32;98503.69;;;1.07;50.83
76660;BME280;65579;45.534;6.212;2023-04-06T04:50:57;98504.40;;;0.82;50.84
76660;BME280;65579;45.534;6.212;2023-04-06T04:53:22;98509.46;;;0.99;49.59
76660;BME280;65579;45.534;6.212;2023-04-06T04:55:47;98511.66;;;0.94;50.02
76660;BME280;65579;45.534;6.212;2023-04-06T04:58:13;98513.05;;;1.22;49.96
76660;BME280;65579;45.534;6.212;2023-04-06T05:00:39;98520.90;;;0.50;51.08
76660;BME280;65579;45.534;6.212;2023-04-06T05:03:05;98525.79;;;0.63;50.58
76660;BME280;65579;45.534;6.212;2023-04-06T05:05:29;98526.39;;;0.77;50.92
76660;BME280;65579;45.534;6.212;2023-04-06T05:07:56;98527.78;;;1.68;49.21
76660;BME280;65579;45.534;6.212;2023-04-06T05:10:21;98533.17;;;1.51;48.68
76660;BME280;65579;45.534;6.212;2023-04-06T05:12:46;98530.20;;;1.49;49.83
76660;BME280;65579;45.534;6.212;2023-04-06T05:15:12;98531.09;;;2.03;50.06
76660;BME280;65579;45.534;6.212;2023-04-06T05:17:38;98530.63;;;0.92;50.90
76660;BME280;65579;45.534;6.212;2023-04-06T05:20:03;98533.10;;;1.01;52.25
76660;BME280;65579;45.534;6.212;2023-04-06T05:22:28;98537.11;;;1.23;49.63
76660;BME280;65579;45.534;6.212;2023-04-06T05:24:53;98545.91;;;1.74;47.71
76660;BME280;65579;45.534;6.212;2023-04-06T05:27:19;98548.35;;;1.31;48.30
76660;BME280;65579;45.534;6.212;2023-04-06T05:29:45;98550.30;;;1.81;47.43
76660;BME280;65579;45.534;6.212;2023-04-06T05:32:09;98548.78;;;1.45;47.91
76660;BME280;65579;45.534;6.212;2023-04-06T05:34:35;98549.20;;;1.75;47.90
76660;BME280;65579;45.534;6.212;2023-04-06T05:37:00;98558.48;;;1.61;50.19
76660;BME280;65579;45.534;6.212;2023-04-06T05:39:26;98565.56;;;2.51;48.15
76660;BME280;65579;45.534;6.212;2023-04-06T05:41:51;98570.68;;;2.18;46.77
76660;BME280;65579;45.534;6.212;2023-04-06T05:44:16;98567.33;;;2.01;48.25
76660;BME280;65579;45.534;6.212;2023-04-06T05:46:41;98565.20;;;2.11;47.38
76660;BME280;65579;45.534;6.212;2023-04-06T05:49:07;98565.75;;;2.07;46.60
76660;BME280;65579;45.534;6.212;2023-04-06T05:51:32;98563.90;;;2.19;46.87
76660;BME280;65579;45.534;6.212;2023-04-06T05:53:57;98567.79;;;2.35;47.05
76660;BME280;65579;45.534;6.212;2023-04-06T05:56:23;98570.83;;;2.79;45.41
76660;BME280;65579;45.534;6.212;2023-04-06T05:58:49;98573.40;;;2.34;46.12
76660;BME280;65579;45.534;6.212;2023-04-06T06:01:14;98578.65;;;2.92;44.73
76660;BME280;65579;45.534;6.212;2023-04-06T06:03:39;98582.85;;;2.12;47.95
76660;BME280;65579;45.534;6.212;2023-04-06T06:06:05;98581.48;;;2.17;46.92
76660;BME280;65579;45.534;6.212;2023-04-06T06:08:30;98584.20;;;2.54;46.81
76660;BME280;65579;45.534;6.212;2023-04-06T06:10:56;98585.18;;;3.48;46.46
76660;BME280;65579;45.534;6.212;2023-04-06T06:13:21;98587.42;;;3.85;43.14
76660;BME280;65579;45.534;6.212;2023-04-06T06:15:47;98586.07;;;3.16;43.45
76660;BME280;65579;45.534;6.212;2023-04-06T06:18:12;98585.36;;;3.81;45.62
76660;BME280;65579;45.534;6.212;2023-04-06T06:20:37;98585.22;;;3.23;46.76
76660;BME280;65579;45.534;6.212;2023-04-06T06:23:03;98589.00;;;2.91;45.64
76660;BME280;65579;45.534;6.212;2023-04-06T06:25:28;98591.50;;;2.75;46.36
76660;BME280;65579;45.534;6.212;2023-04-06T06:27:53;98593.69;;;3.29;47.45
76660;BME280;65579;45.534;6.212;2023-04-06T06:30:18;98591.71;;;3.19;45.07
76660;BME280;65579;45.534;6.212;2023-04-06T06:32:44;98585.52;;;3.53;46.26
76660;BME280;65579;45.534;6.212;2023-04-06T06:35:10;98588.20;;;3.69;45.76
76660;BME280;65579;45.534;6.212;2023-04-06T06:37:35;98582.13;;;4.26;44.38
76660;BME280;65579;45.534;6.212;2023-04-06T06:40:00;98579.31;;;5.02;42.45
76660;BME280;65579;45.534;6.212;2023-04-06T06:42:26;98572.52;;;3.92;47.54
76660;BME280;65579;45.534;6.212;2023-04-06T06:44:51;98564.72;;;4.72;43.76
76660;BME280;65579;45.534;6.212;2023-04-06T06:47:16;98564.30;;;4.21;44.37
76660;BME280;65579;45.534;6.212;2023-04-06T06:49:42;98562.73;;;4.10;46.11
76660;BME280;65579;45.534;6.212;2023-04-06T06:52:07;98567.54;;;3.90;46.65
76660;BME280;65579;45.534;6.212;2023-04-06T06:54:33;98573.89;;;4.35;48.32
76660;BME280;65579;45.534;6.212;2023-04-06T06:56:59;98573.41;;;3.76;47.92
76660;BME280;65579;45.534;6.212;2023-04-06T06:59:24;98578.13;;;4.06;47.38
76660;BME280;65579;45.534;6.212;2023-04-06T07:01:50;98577.06;;;3.94;48.40
76660;BME280;65579;45.534;6.212;2023-04-06T07:04:14;98573.09;;;3.79;45.86
76660;BME280;65579;45.534;6.212;2023-04-06T07:06:39;98571.10;;;4.49;43.99
76660;BME280;65579;45.534;6.212;2023-04-06T07:09:05;98569.33;;;4.67;45.61
76660;BME280;65579;45.534;6.212;2023-04-06T07:11:31;98565.67;;;4.59;46.56
76660;BME280;65579;45.534;6.212;2023-04-06T07:13:56;98562.94;;;4.84;45.57
76660;BME280;65579;45.534;6.212;2023-04-06T07:16:21;98560.58;;;4.59;46.09
76660;BME280;65579;45.534;6.212;2023-04-06T07:18:46;98555.20;;;5.62;43.63
76660;BME280;65579;45.534;6.212;2023-04-06T07:21:11;98554.89;;;5.11;45.77
76660;BME280;65579;45.534;6.212;2023-04-06T07:23:37;98551.13;;;5.38;43.35
76660;BME280;65579;45.534;6.212;2023-04-06T07:26:02;98555.97;;;4.99;45.59
76660;BME280;65579;45.534;6.212;2023-04-06T07:28:28;98553.22;;;5.21;46.06
76660;BME280;65579;45.534;6.212;2023-04-06T07:30:54;98554.26;;;4.82;44.60
76660;BME280;65579;45.534;6.212;2023-04-06T07:33:19;98557.94;;;6.07;43.51
76660;BME280;65579;45.534;6.212;2023-04-06T07:35:45;98561.56;;;6.21;41.58
76660;BME280;65579;45.534;6.212;2023-04-06T07:38:10;98561.57;;;5.59;41.97
76660;BME280;65579;45.534;6.212;2023-04-06T07:40:35;98560.28;;;5.86;42.64
76660;BME280;65579;45.534;6.212;2023-04-06T07:43:01;98558.74;;;6.21;43.39
76660;BME280;65579;45.534;6.212;2023-04-06T07:45:26;98556.99;;;6.23;41.50
76660;BME280;65579;45.534;6.212;2023-04-06T07:47:51;98555.65;;;6.02;41.36
76660;BME280;65579;45.534;6.212;2023-04-06T07:50:17;98554.30;;;5.80;41.79
76660;BME280;65579;45.534;6.212;2023-04-06T07:52:43;98550.68;;;6.38;40.20
76660;BME280;65579;45.534;6.212;2023-04-06T07:55:08;98551.46;;;6.10;41.49
76660;BME280;65579;45.534;6.212;2023-04-06T07:57:33;98551.47;;;5.69;43.78
76660;BME280;65579;45.534;6.212;2023-04-06T07:59:58;98554.05;;;6.59;40.83
76660;BME280;65579;45.534;6.212;2023-04-06T08:02:24;98552.92;;;6.78;42.67
76660;BME280;65579;45.534;6.212;2023-04-06T08:04:49;98556.21;;;6.75;40.14
76660;BME280;65579;45.534;6.212;2023-04-06T08:07:15;98553.42;;;6.64;40.20
76660;BME280;65579;45.534;6.212;2023-04-06T08:09:40;98553.18;;;6.21;41.25
76660;BME280;65579;45.534;6.212;2023-04-06T08:12:06;98553.98;;;6.11;39.98
76660;BME280;65579;45.534;6.212;2023-04-06T08:14:31;98553.16;;;6.44;39.41
76660;BME280;65579;45.534;6.212;2023-04-06T08:16:56;98552.51;;;6.25;38.42
76660;BME280;65579;45.534;6.212;2023-04-06T08:19:22;98548.25;;;5.97;39.57
76660;BME280;65579;45.534;6.212;2023-04-06T08:21:47;98545.91;;;6.33;38.49
76660;BME280;65579;45.534;6.212;2023-04-06T08:24:13;98544.35;;;6.86;39.66
76660;BME280;65579;45.534;6.212;2023-04-06T08:26:38;98543.57;;;6.53;40.37
76660;BME280;65579;45.534;6.212;2023-04-06T08:29:04;98541.92;;;6.53;35.53
76660;BME280;65579;45.534;6.212;2023-04-06T08:31:29;98541.84;;;7.40;37.13
76660;BME280;65579;45.534;6.212;2023-04-06T08:33:54;98539.60;;;7.38;37.16
76660;BME280;65579;45.534;6.212;2023-04-06T08:36:20;98540.06;;;6.86;37.65
76660;BME280;65579;45.534;6.212;2023-04-06T08:38:45;98537.96;;;7.21;35.27
76660;BME280;65579;45.534;6.212;2023-04-06T08:41:12;98537.40;;;7.46;38.24
76660;BME280;65579;45.534;6.212;2023-04-06T08:43:43;98536.71;;;7.18;34.73
76660;BME280;65579;45.534;6.212;2023-04-06T08:46:01;98536.11;;;7.00;36.11
76660;BME280;65579;45.534;6.212;2023-04-06T08:48:27;98534.77;;;6.74;35.06
76660;BME280;65579;45.534;6.212;2023-04-06T08:50:52;98536.59;;;6.76;37.53
76660;BME280;65579;45.534;6.212;2023-04-06T08:53:18;98533.85;;;6.19;37.92
76660;BME280;65579;45.534;6.212;2023-04-06T08:55:43;98532.72;;;6.79;36.45
76660;BME280;65579;45.534;6.212;2023-04-06T08:58:08;98531.38;;;7.50;36.56
76660;BME280;65579;45.534;6.212;2023-04-06T09:00:37;98533.54;;;7.59;36.21
76660;BME280;65579;45.534;6.212;2023-04-06T09:02:59;98531.00;;;7.53;33.85
76660;BME280;65579;45.534;6.212;2023-04-06T09:05:25;98533.83;;;7.57;34.87
76660;BME280;65579;45.534;6.212;2023-04-06T09:07:50;98526.66;;;7.95;35.34
76660;BME280;65579;45.534;6.212;2023-04-06T09:10:16;98519.44;;;7.77;32.80
76660;BME280;65579;45.534;6.212;2023-04-06T09:12:41;98518.33;;;8.06;34.84
76660;BME280;65579;45.534;6.212;2023-04-06T09:15:07;98515.83;;;8.43;34.08
76660;BME280;65579;45.534;6.212;2023-04-06T09:17:32;98510.53;;;8.44;33.95
76660;BME280;65579;45.534;6.212;2023-04-06T09:19:57;98508.35;;;8.74;32.12
76660;BME280;65579;45.534;6.212;2023-04-06T09:22:22;98504.56;;;8.70;32.98
76660;BME280;65579;45.534;6.212;2023-04-06T09:24:49;98502.01;;;8.57;31.41
76660;BME280;65579;45.534;6.212;2023-04-06T09:27:14;98504.23;;;8.30;33.45
76660;BME280;65579;45.534;6.212;2023-04-06T09:29:39;98500.75;;;8.16;31.75
76660;BME280;65579;45.534;6.212;2023-04-06T09:32:05;98498.50;;;8.62;33.04
76660;BME280;65579;45.534;6.212;2023-04-06T09:34:29;98498.35;;;8.39;34.78
76660;BME280;65579;45.534;6.212;2023-04-06T09:36:54;98496.98;;;8.71;33.50
76660;BME280;65579;45.534;6.212;2023-04-06T09:39:21;98495.74;;;8.62;34.01
76660;BME280;65579;45.534;6.212;2023-04-06T09:41:50;98492.53;;;8.18;33.52
76660;BME280;65579;45.534;6.212;2023-04-06T09:44:11;98492.79;;;8.59;31.60
76660;BME280;65579;45.534;6.212;2023-04-06T09:46:38;98490.02;;;9.25;31.53
76660;BME280;65579;45.534;6.212;2023-04-06T09:49:02;98490.95;;;10.14;32.12
76660;BME280;65579;45.534;6.212;2023-04-06T09:51:30;98491.58;;;10.93;30.76
76660;BME280;65579;45.534;6.212;2023-04-06T09:53:53;98487.25;;;9.58;31.58
76660;BME280;65579;45.534;6.212;2023-04-06T09:56:22;98484.09;;;9.69;32.12
76660;BME280;65579;45.534;6.212;2023-04-06T09:58:43;98482.81;;;9.80;32.39
76660;BME280;65579;45.534;6.212;2023-04-06T10:01:10;98478.44;;;9.39;30.37
76660;BME280;65579;45.534;6.212;2023-04-06T10:03:44;98473.37;;;9.75;27.68
76660;BME280;65579;45.534;6.212;2023-04-06T10:06:10;98473.01;;;10.69;29.97
76660;BME280;65579;45.534;6.212;2023-04-06T10:08:28;98472.51;;;10.79;31.82
76660;BME280;65579;45.534;6.212;2023-04-06T10:10:54;98469.14;;;10.16;29.33
76660;BME280;65579;45.534;6.212;2023-04-06T10:13:17;98467.88;;;10.88;29.02
76660;BME280;65579;45.534;6.212;2023-04-06T10:15:40;98464.77;;;10.53;29.72
76660;BME280;65579;45.534;6.212;2023-04-06T10:18:05;98464.65;;;11.01;29.39
76660;BME280;65579;45.534;6.212;2023-04-06T10:20:35;98460.44;;;10.49;29.12
76660;BME280;65579;45.534;6.212;2023-04-06T10:23:06;98461.00;;;10.83;30.44
76660;BME280;65579;45.534;6.212;2023-04-06T10:25:27;98455.30;;;11.18;28.66
76660;BME280;65579;45.534;6.212;2023-04-06T10:27:47;98459.14;;;10.85;28.35
76660;BME280;65579;45.534;6.212;2023-04-06T10:30:15;98452.90;;;11.68;23.24
76660;BME280;65579;45.534;6.212;2023-04-06T10:32:38;98455.19;;;11.51;24.82
76660;BME280;65579;45.534;6.212;2023-04-06T10:35:08;98459.95;;;11.17;26.94
76660;BME280;65579;45.534;6.212;2023-04-06T10:37:28;98460.33;;;10.59;25.98
76660;BME280;65579;45.534;6.212;2023-04-06T10:39:53;98462.15;;;10.46;30.44
76660;BME280;65579;45.534;6.212;2023-04-06T10:42:23;98459.61;;;10.66;31.18
76660;BME280;65579;45.534;6.212;2023-04-06T10:44:45;98457.35;;;11.41;29.73
76660;BME280;65579;45.534;6.212;2023-04-06T10:47:16;98456.31;;;11.36;31.27
76660;BME280;65579;45.534;6.212;2023-04-06T10:49:36;98456.75;;;11.42;29.29
76660;BME280;65579;45.534;6.212;2023-04-06T10:52:02;98451.68;;;11.95;31.41
76660;BME280;65579;45.534;6.212;2023-04-06T10:54:28;98447.35;;;12.11;27.86
76660;BME280;65579;45.534;6.212;2023-04-06T10:56:52;98445.62;;;11.91;27.54
76660;BME280;65579;45.534;6.212;2023-04-06T10:59:19;98445.27;;;12.25;30.26
76660;BME280;65579;45.534;6.212;2023-04-06T11:01:45;98451.51;;;11.11;31.66
76660;BME280;65579;45.534;6.212;2023-04-06T11:04:09;98440.32;;;12.14;30.12
76660;BME280;65579;45.534;6.212;2023-04-06T11:06:35;98439.76;;;11.08;30.40
76660;BME280;65579;45.534;6.212;2023-04-06T11:09:00;98436.13;;;11.11;30.44
76660;BME280;65579;45.534;6.212;2023-04-06T11:11:26;98432.05;;;11.24;30.40
76660;BME280;65579;45.534;6.212;2023-04-06T11:13:57;98421.67;;;11.70;28.88
76660;BME280;65579;45.534;6.212;2023-04-06T11:16:25;98415.37;;;12.68;26.30
76660;BME280;65579;45.534;6.212;2023-04-06T11:18:54;98413.12;;;13.08;24.32
76660;BME280;65579;45.534;6.212;2023-04-06T11:21:10;98408.21;;;13.97;23.74
76660;BME280;65579;45.534;6.212;2023-04-06T11:23:36;98406.61;;;13.97;25.62
76660;BME280;65579;45.534;6.212;2023-04-06T11:26:03;98402.84;;;14.00;23.04
76660;BME280;65579;45.534;6.212;2023-04-06T11:28:27;98398.19;;;13.56;23.63
76660;BME280;65579;45.534;6.212;2023-04-06T11:30:52;98399.74;;;13.24;23.82
76660;BME280;65579;45.534;6.212;2023-04-06T11:33:20;98395.08;;;14.78;25.84
76660;BME280;65579;45.534;6.212;2023-04-06T11:35:43;98392.22;;;14.00;25.32
76660;BME280;65579;45.534;6.212;2023-04-06T11:38:11;98390.78;;;14.84;21.34
76660;BME280;65579;45.534;6.212;2023-04-06T11:40:33;98389.55;;;14.94;20.73
76660;BME280;65579;45.534;6.212;2023-04-06T11:42:57;98383.62;;;15.54;23.44
76660;BME280;65579;45.534;6.212;2023-04-06T11:45:24;98383.61;;;14.04;23.17
76660;BME280;65579;45.534;6.212;2023-04-06T11:47:56;98380.57;;;13.95;25.24
76660;BME280;65579;45.534;6.212;2023-04-06T11:50:16;98378.20;;;13.02;24.72
76660;BME280;65579;45.534;6.212;2023-04-06T11:52:41;98379.63;;;14.32;24.09
76660;BME280;65579;45.534;6.212;2023-04-06T11:55:10;98379.29;;;14.63;21.15
76660;BME280;65579;45.534;6.212;2023-04-06T11:57:31;98381.12;;;14.95;20.89
76660;BME280;65579;45.534;6.212;2023-04-06T11:59:59;98376.61;;;14.87;21.84
76660;BME280;65579;45.534;6.212;2023-04-06T12:02:20;98375.67;;;15.77;19.98
76660;BME280;65579;45.534;6.212;2023-04-06T12:04:49;98378.90;;;14.59;23.14
76660;BME280;65579;45.534;6.212;2023-04-06T12:07:14;98371.93;;;12.63;22.87
76660;BME280;65579;45.534;6.212;2023-04-06T12:09:36;98373.70;;;13.84;21.20
76660;BME280;65579;45.534;6.212;2023-04-06T12:12:05;98367.89;;;12.69;26.47
76660;BME280;65579;45.534;6.212;2023-04-06T12:14:28;98368.18;;;13.26;24.86
76660;BME280;65579;45.534;6.212;2023-04-06T12:16:54;98369.17;;;13.09;24.15
76660;BME280;65579;45.534;6.212;2023-04-06T12:19:21;98362.75;;;12.90;24.27
76660;BME280;65579;45.534;6.212;2023-04-06T12:21:45;98363.15;;;13.54;21.27
76660;BME280;65579;45.534;6.212;2023-04-06T12:24:10;98358.35;;;13.00;23.00
76660;BME280;65579;45.534;6.212;2023-04-06T12:26:34;98355.25;;;12.64;24.50
76660;BME280;65579;45.534;6.212;2023-04-06T12:28:59;98354.36;;;12.31;23.43
76660;BME280;65579;45.534;6.212;2023-04-06T12:31:25;98355.39;;;12.93;22.82
76660;BME280;65579;45.534;6.212;2023-04-06T12:33:53;98358.00;;;12.49;25.81
76660;BME280;65579;45.534;6.212;2023-04-06T12:36:19;98357.24;;;13.04;24.58
76660;BME280;65579;45.534;6.212;2023-04-06T12:38:43;98359.55;;;14.18;20.30
76660;BME280;65579;45.534;6.212;2023-04-06T12:41:07;98356.95;;;13.65;21.07
76660;BME280;65579;45.534;6.212;2023-04-06T12:43:34;98359.66;;;13.96;19.06
76660;BME280;65579;45.534;6.212;2023-04-06T12:46:00;98358.97;;;13.03;23.70
76660;BME280;65579;45.534;6.212;2023-04-06T12:48:25;98357.27;;;13.15;23.11
76660;BME280;65579;45.534;6.212;2023-04-06T12:50:57;98350.18;;;12.73;23.60
76660;BME280;65579;45.534;6.212;2023-04-06T12:53:17;98355.01;;;12.59;25.01
76660;BME280;65579;45.534;6.212;2023-04-06T12:55:41;98355.54;;;13.12;23.24